sensor_id;sensor_type;location;lat;lon;timestamp;P1;durP1;ratioP1;P2;durP2;ratioP2
53971;SDS011;40530;53.062;6.078;2023-02-28T00:02:19;8.80;;;2.58;;
53971;SDS011;40530;53.062;6.078;2023-02-28T00:04:45;8.57;;;2.00;;
53971;SDS011;40530;53.062;6.078;2023-02-28T00:07:17;5.50;;;2.25;;
53971;SDS011;40530;53.062;6.078;2023-02-28T00:09:43;9.60;;;3.15;;
53971;SDS011;40530;53.062;6.078;2023-02-28T00:12:10;8.80;;;2.30;;
53971;SDS011;40530;53.062;6.078;2023-02-28T00:14:36;7.22;;;2.35;;
53971;SDS011;40530;53.062;6.078;2023-02-28T00:17:02;14.23;;;2.47;;
53971;SDS011;40530;53.062;6.078;2023-02-28T00:19:28;8.40;;;2.25;;
53971;SDS011;40530;53.062;6.078;2023-02-28T00:21:54;12.73;;;2.80;;
53971;SDS011;40530;53.062;6.078;2023-02-28T00:24:20;11.93;;;2.38;;
53971;SDS011;40530;53.062;6.078;2023-02-28T00:26:46;10.13;;;2.95;;
53971;SDS011;40530;53.062;6.078;2023-02-28T00:29:12;7.55;;;2.42;;
53971;SDS011;40530;53.062;6.078;2023-02-28T00:31:38;7.53;;;2.38;;
53971;SDS011;40530;53.062;6.078;2023-02-28T00:34:04;6.50;;;2.13;;
53971;SDS011;40530;53.062;6.078;2023-02-28T00:36:32;7.38;;;2.30;;
53971;SDS011;40530;53.062;6.078;2023-02-28T00:38:58;15.27;;;2.97;;
53971;SDS011;40530;53.062;6.078;2023-02-28T00:41:24;11.55;;;2.60;;
53971;SDS011;40530;53.062;6.078;2023-02-28T00:43:50;6.00;;;3.40;;
53971;SDS011;40530;53.062;6.078;2023-02-28T00:46:16;10.23;;;2.40;;
53971;SDS011;40530;53.062;6.078;2023-02-28T00:48:42;12.88;;;2.80;;
53971;SDS011;40530;53.062;6.078;2023-02-28T00:51:08;6.13;;;2.90;;
53971;SDS011;40530;53.062;6.078;2023-02-28T00:53:34;10.25;;;2.42;;
53971;SDS011;40530;53.062;6.078;2023-02-28T00:56:00;10.38;;;2.72;;
53971;SDS011;40530;53.062;6.078;2023-02-28T00:58:27;8.63;;;2.28;;
53971;SDS011;40530;53.062;6.078;2023-02-28T01:00:53;9.55;;;3.25;;
53971;SDS011;40530;53.062;6.078;2023-02-28T01:03:19;8.07;;;1.85;;
53971;SDS011;40530;53.062;6.078;2023-02-28T01:05:47;9.30;;;2.35;;
53971;SDS011;40530;53.062;6.078;2023-02-28T01:08:13;11.38;;;3.13;;
53971;SDS011;40530;53.062;6.078;2023-02-28T01:10:39;12.60;;;3.88;;
53971;SDS011;40530;53.062;6.078;2023-02-28T01:13:05;4.95;;;2.38;;
53971;SDS011;40530;53.062;6.078;2023-02-28T01:15:32;8.57;;;2.90;;
53971;SDS011;40530;53.062;6.078;2023-02-28T01:17:58;10.77;;;2.30;;
53971;SDS011;40530;53.062;6.078;2023-02-28T01:20:25;7.70;;;2.72;;
53971;SDS011;40530;53.062;6.078;2023-02-28T01:22:51;9.43;;;3.10;;
53971;SDS011;40530;53.062;6.078;2023-02-28T01:25:17;11.90;;;2.72;;
53971;SDS011;40530;53.062;6.078;2023-02-28T01:27:44;8.88;;;2.35;;
53971;SDS011;40530;53.062;6.078;2023-02-28T01:30:10;8.48;;;2.33;;
53971;SDS011;40530;53.062;6.078;2023-02-28T01:32:36;8.82;;;1.90;;
53971;SDS011;40530;53.062;6.078;2023-02-28T01:35:02;9.57;;;2.47;;
53971;SDS011;40530;53.062;6.078;2023-02-28T01:37:29;9.32;;;2.13;;
53971;SDS011;40530;53.062;6.078;2023-02-28T01:39:55;7.50;;;2.22;;
53971;SDS011;40530;53.062;6.078;2023-02-28T01:42:21;11.77;;;2.42;;
53971;SDS011;40530;53.062;6.078;2023-02-28T01:44:57;6.43;;;2.20;;
53971;SDS011;40530;53.062;6.078;2023-02-28T01:47:25;7.97;;;2.17;;
53971;SDS011;40530;53.062;6.078;2023-02-28T01:49:52;7.47;;;2.60;;
53971;SDS011;40530;53.062;6.078;2023-02-28T01:52:19;7.32;;;2.22;;
53971;SDS011;40530;53.062;6.078;2023-02-28T01:54:48;5.65;;;2.85;;
53971;SDS011;40530;53.062;6.078;2023-02-28T01:57:16;8.15;;;2.95;;
53971;SDS011;40530;53.062;6.078;2023-02-28T01:59:44;8.98;;;2.65;;
53971;SDS011;40530;53.062;6.078;2023-02-28T02:02:11;9.70;;;2.30;;
53971;SDS011;40530;53.062;6.078;2023-02-28T02:04:39;11.10;;;2.60;;
53971;SDS011;40530;53.062;6.078;2023-02-28T02:07:05;7.47;;;2.80;;
53971;SDS011;40530;53.062;6.078;2023-02-28T02:09:31;10.32;;;2.90;;
53971;SDS011;40530;53.062;6.078;2023-02-28T02:11:58;10.95;;;2.78;;
53971;SDS011;40530;53.062;6.078;2023-02-28T02:27:33;10.77;;;2.67;;
53971;SDS011;40530;53.062;6.078;2023-02-28T02:35:25;7.82;;;2.50;;
53971;SDS011;40530;53.062;6.078;2023-02-28T02:42:49;10.88;;;3.65;;
53971;SDS011;40530;53.062;6.078;2023-02-28T02:47:43;9.90;;;2.50;;
53971;SDS011;40530;53.062;6.078;2023-02-28T02:50:11;11.25;;;2.60;;
53971;SDS011;40530;53.062;6.078;2023-02-28T02:52:45;9.52;;;2.47;;
53971;SDS011;40530;53.062;6.078;2023-02-28T02:55:13;11.52;;;2.53;;
53971;SDS011;40530;53.062;6.078;2023-02-28T02:57:50;6.93;;;2.60;;
53971;SDS011;40530;53.062;6.078;2023-02-28T03:00:17;13.00;;;3.78;;
53971;SDS011;40530;53.062;6.078;2023-02-28T03:02:45;17.10;;;3.33;;
53971;SDS011;40530;53.062;6.078;2023-02-28T03:05:20;9.57;;;2.95;;
53971;SDS011;40530;53.062;6.078;2023-02-28T03:07:47;6.53;;;2.38;;
53971;SDS011;40530;53.062;6.078;2023-02-28T03:10:26;12.82;;;3.40;;
53971;SDS011;40530;53.062;6.078;2023-02-28T03:12:56;15.75;;;3.67;;
53971;SDS011;40530;53.062;6.078;2023-02-28T03:15:26;13.80;;;3.17;;
53971;SDS011;40530;53.062;6.078;2023-02-28T03:25:43;10.50;;;3.78;;
53971;SDS011;40530;53.062;6.078;2023-02-28T03:33:09;12.23;;;3.10;;
53971;SDS011;40530;53.062;6.078;2023-02-28T03:35:39;15.35;;;3.17;;
53971;SDS011;40530;53.062;6.078;2023-02-28T03:38:13;17.35;;;3.70;;
53971;SDS011;40530;53.062;6.078;2023-02-28T03:40:41;10.82;;;3.22;;
53971;SDS011;40530;53.062;6.078;2023-02-28T03:43:09;11.48;;;3.13;;
53971;SDS011;40530;53.062;6.078;2023-02-28T03:45:38;11.80;;;3.70;;
53971;SDS011;40530;53.062;6.078;2023-02-28T03:48:07;11.30;;;3.80;;
53971;SDS011;40530;53.062;6.078;2023-02-28T03:53:08;8.43;;;3.00;;
53971;SDS011;40530;53.062;6.078;2023-02-28T03:55:46;13.40;;;2.97;;
53971;SDS011;40530;53.062;6.078;2023-02-28T03:58:21;7.18;;;2.95;;
53971;SDS011;40530;53.062;6.078;2023-02-28T04:00:53;10.00;;;3.25;;
53971;SDS011;40530;53.062;6.078;2023-02-28T04:03:21;16.52;;;7.07;;
53971;SDS011;40530;53.062;6.078;2023-02-28T04:05:49;8.93;;;3.65;;
53971;SDS011;40530;53.062;6.078;2023-02-28T04:08:16;9.60;;;4.70;;
53971;SDS011;40530;53.062;6.078;2023-02-28T04:10:42;8.77;;;4.13;;
53971;SDS011;40530;53.062;6.078;2023-02-28T04:13:11;11.35;;;3.92;;
53971;SDS011;40530;53.062;6.078;2023-02-28T04:15:37;6.15;;;3.22;;
53971;SDS011;40530;53.062;6.078;2023-02-28T04:18:03;8.68;;;3.38;;
53971;SDS011;40530;53.062;6.078;2023-02-28T04:20:29;12.07;;;3.83;;
53971;SDS011;40530;53.062;6.078;2023-02-28T04:22:55;9.30;;;3.40;;
53971;SDS011;40530;53.062;6.078;2023-02-28T04:25:21;6.28;;;4.15;;
53971;SDS011;40530;53.062;6.078;2023-02-28T04:27:47;10.27;;;5.50;;
53971;SDS011;40530;53.062;6.078;2023-02-28T04:30:13;11.60;;;5.75;;
53971;SDS011;40530;53.062;6.078;2023-02-28T04:32:39;13.60;;;6.18;;
53971;SDS011;40530;53.062;6.078;2023-02-28T04:35:05;12.20;;;6.30;;
53971;SDS011;40530;53.062;6.078;2023-02-28T04:37:31;10.15;;;5.85;;
53971;SDS011;40530;53.062;6.078;2023-02-28T04:39:59;12.77;;;6.97;;
53971;SDS011;40530;53.062;6.078;2023-02-28T04:42:25;14.48;;;6.55;;
53971;SDS011;40530;53.062;6.078;2023-02-28T04:44:51;12.35;;;6.60;;
53971;SDS011;40530;53.062;6.078;2023-02-28T04:47:17;10.27;;;6.18;;
53971;SDS011;40530;53.062;6.078;2023-02-28T04:49:44;13.88;;;6.10;;
53971;SDS011;40530;53.062;6.078;2023-02-28T04:52:10;9.88;;;5.60;;
53971;SDS011;40530;53.062;6.078;2023-02-28T04:54:36;6.55;;;5.43;;
53971;SDS011;40530;53.062;6.078;2023-02-28T04:57:03;9.10;;;6.35;;
53971;SDS011;40530;53.062;6.078;2023-02-28T04:59:30;9.13;;;4.63;;
53971;SDS011;40530;53.062;6.078;2023-02-28T05:01:56;9.40;;;4.40;;
53971;SDS011;40530;53.062;6.078;2023-02-28T05:04:22;11.35;;;5.32;;
53971;SDS011;40530;53.062;6.078;2023-02-28T05:06:48;5.90;;;4.50;;
53971;SDS011;40530;53.062;6.078;2023-02-28T05:09:14;6.40;;;4.40;;
53971;SDS011;40530;53.062;6.078;2023-02-28T05:11:40;5.80;;;4.25;;
53971;SDS011;40530;53.062;6.078;2023-02-28T05:14:09;6.20;;;4.47;;
53971;SDS011;40530;53.062;6.078;2023-02-28T05:16:36;5.85;;;4.15;;
53971;SDS011;40530;53.062;6.078;2023-02-28T05:19:03;7.10;;;3.90;;
53971;SDS011;40530;53.062;6.078;2023-02-28T05:21:31;7.10;;;4.53;;
53971;SDS011;40530;53.062;6.078;2023-02-28T05:23:59;6.35;;;4.50;;
53971;SDS011;40530;53.062;6.078;2023-02-28T05:26:25;6.28;;;4.30;;
53971;SDS011;40530;53.062;6.078;2023-02-28T05:28:51;7.78;;;5.45;;
53971;SDS011;40530;53.062;6.078;2023-02-28T05:31:18;8.27;;;4.28;;
53971;SDS011;40530;53.062;6.078;2023-02-28T05:33:44;7.05;;;5.05;;
53971;SDS011;40530;53.062;6.078;2023-02-28T05:36:10;6.25;;;5.15;;
53971;SDS011;40530;53.062;6.078;2023-02-28T05:38:36;8.63;;;4.88;;
53971;SDS011;40530;53.062;6.078;2023-02-28T05:41:06;9.70;;;4.85;;
53971;SDS011;40530;53.062;6.078;2023-02-28T05:43:32;10.95;;;5.18;;
53971;SDS011;40530;53.062;6.078;2023-02-28T05:45:58;6.05;;;4.53;;
53971;SDS011;40530;53.062;6.078;2023-02-28T05:48:24;5.95;;;4.65;;
53971;SDS011;40530;53.062;6.078;2023-02-28T05:50:50;5.93;;;4.13;;
53971;SDS011;40530;53.062;6.078;2023-02-28T05:53:16;5.40;;;4.15;;
53971;SDS011;40530;53.062;6.078;2023-02-28T05:55:43;6.60;;;4.13;;
53971;SDS011;40530;53.062;6.078;2023-02-28T05:58:09;6.72;;;4.20;;
53971;SDS011;40530;53.062;6.078;2023-02-28T06:00:35;5.50;;;4.38;;
53971;SDS011;40530;53.062;6.078;2023-02-28T06:03:01;8.68;;;5.38;;
53971;SDS011;40530;53.062;6.078;2023-02-28T06:05:27;12.02;;;6.75;;
53971;SDS011;40530;53.062;6.078;2023-02-28T06:07:53;9.82;;;7.38;;
53971;SDS011;40530;53.062;6.078;2023-02-28T06:10:19;12.15;;;7.53;;
53971;SDS011;40530;53.062;6.078;2023-02-28T06:12:45;10.30;;;7.85;;
53971;SDS011;40530;53.062;6.078;2023-02-28T06:15:12;23.42;;;8.45;;
53971;SDS011;40530;53.062;6.078;2023-02-28T06:17:39;16.15;;;8.80;;
53971;SDS011;40530;53.062;6.078;2023-02-28T06:20:05;16.23;;;9.48;;
53971;SDS011;40530;53.062;6.078;2023-02-28T06:22:32;16.00;;;9.30;;
53971;SDS011;40530;53.062;6.078;2023-02-28T06:24:58;15.18;;;9.55;;
53971;SDS011;40530;53.062;6.078;2023-02-28T06:27:24;10.63;;;8.15;;
53971;SDS011;40530;53.062;6.078;2023-02-28T06:29:53;12.07;;;8.60;;
53971;SDS011;40530;53.062;6.078;2023-02-28T06:32:19;12.60;;;9.73;;
53971;SDS011;40530;53.062;6.078;2023-02-28T06:34:45;14.02;;;9.57;;
53971;SDS011;40530;53.062;6.078;2023-02-28T06:37:12;24.10;;;13.30;;
53971;SDS011;40530;53.062;6.078;2023-02-28T06:39:38;15.55;;;9.88;;
53971;SDS011;40530;53.062;6.078;2023-02-28T06:42:04;13.90;;;9.52;;
53971;SDS011;40530;53.062;6.078;2023-02-28T06:44:31;14.98;;;10.00;;
53971;SDS011;40530;53.062;6.078;2023-02-28T06:47:00;14.48;;;9.75;;
53971;SDS011;40530;53.062;6.078;2023-02-28T06:49:28;13.98;;;10.13;;
53971;SDS011;40530;53.062;6.078;2023-02-28T06:51:54;14.88;;;9.75;;
53971;SDS011;40530;53.062;6.078;2023-02-28T06:54:20;14.48;;;10.70;;
53971;SDS011;40530;53.062;6.078;2023-02-28T06:56:46;13.85;;;10.85;;
53971;SDS011;40530;53.062;6.078;2023-02-28T06:59:12;16.77;;;10.82;;
53971;SDS011;40530;53.062;6.078;2023-02-28T07:01:39;17.80;;;10.70;;
53971;SDS011;40530;53.062;6.078;2023-02-28T07:04:06;13.75;;;11.05;;
53971;SDS011;40530;53.062;6.078;2023-02-28T07:06:32;16.85;;;11.10;;
53971;SDS011;40530;53.062;6.078;2023-02-28T07:08:58;19.00;;;12.73;;
53971;SDS011;40530;53.062;6.078;2023-02-28T07:11:25;16.40;;;12.20;;
53971;SDS011;40530;53.062;6.078;2023-02-28T07:13:54;15.18;;;11.23;;
53971;SDS011;40530;53.062;6.078;2023-02-28T07:16:21;17.27;;;11.90;;
53971;SDS011;40530;53.062;6.078;2023-02-28T07:18:47;19.75;;;13.90;;
53971;SDS011;40530;53.062;6.078;2023-02-28T07:21:14;20.55;;;12.98;;
53971;SDS011;40530;53.062;6.078;2023-02-28T07:23:40;18.77;;;13.65;;
53971;SDS011;40530;53.062;6.078;2023-02-28T07:26:07;19.50;;;12.48;;
53971;SDS011;40530;53.062;6.078;2023-02-28T07:28:36;18.25;;;12.15;;
53971;SDS011;40530;53.062;6.078;2023-02-28T07:31:06;20.55;;;12.55;;
53971;SDS011;40530;53.062;6.078;2023-02-28T07:33:33;18.38;;;13.27;;
53971;SDS011;40530;53.062;6.078;2023-02-28T07:36:32;72.05;;;38.03;;
53971;SDS011;40530;53.062;6.078;2023-02-28T07:38:51;25.20;;;14.55;;
53971;SDS011;40530;53.062;6.078;2023-02-28T07:41:19;21.00;;;14.25;;
53971;SDS011;40530;53.062;6.078;2023-02-28T07:43:45;21.52;;;13.48;;
53971;SDS011;40530;53.062;6.078;2023-02-28T07:46:12;19.38;;;13.23;;
53971;SDS011;40530;53.062;6.078;2023-02-28T07:48:42;19.23;;;13.43;;
53971;SDS011;40530;53.062;6.078;2023-02-28T07:51:08;18.77;;;13.43;;
53971;SDS011;40530;53.062;6.078;2023-02-28T07:53:34;19.67;;;14.18;;
53971;SDS011;40530;53.062;6.078;2023-02-28T07:56:01;20.58;;;13.82;;
53971;SDS011;40530;53.062;6.078;2023-02-28T07:58:27;19.75;;;12.65;;
53971;SDS011;40530;53.062;6.078;2023-02-28T08:00:54;16.00;;;11.27;;
53971;SDS011;40530;53.062;6.078;2023-02-28T08:03:21;17.13;;;12.88;;
53971;SDS011;40530;53.062;6.078;2023-02-28T08:05:48;20.02;;;13.82;;
53971;SDS011;40530;53.062;6.078;2023-02-28T08:08:14;16.88;;;12.20;;
53971;SDS011;40530;53.062;6.078;2023-02-28T08:10:41;21.02;;;11.73;;
53971;SDS011;40530;53.062;6.078;2023-02-28T08:13:07;17.90;;;13.55;;
53971;SDS011;40530;53.062;6.078;2023-02-28T08:15:33;17.45;;;13.30;;
53971;SDS011;40530;53.062;6.078;2023-02-28T08:17:59;21.73;;;13.80;;
53971;SDS011;40530;53.062;6.078;2023-02-28T08:20:26;19.95;;;13.13;;
53971;SDS011;40530;53.062;6.078;2023-02-28T08:22:52;16.40;;;12.07;;
53971;SDS011;40530;53.062;6.078;2023-02-28T08:25:18;17.67;;;13.07;;
53971;SDS011;40530;53.062;6.078;2023-02-28T08:27:44;21.60;;;13.20;;
53971;SDS011;40530;53.062;6.078;2023-02-28T08:30:11;15.65;;;11.93;;
53971;SDS011;40530;53.062;6.078;2023-02-28T08:32:37;20.35;;;13.93;;
53971;SDS011;40530;53.062;6.078;2023-02-28T08:35:03;29.38;;;17.73;;
53971;SDS011;40530;53.062;6.078;2023-02-28T08:37:29;22.95;;;15.65;;
53971;SDS011;40530;53.062;6.078;2023-02-28T08:39:55;16.08;;;11.38;;
53971;SDS011;40530;53.062;6.078;2023-02-28T08:42:22;15.60;;;10.95;;
53971;SDS011;40530;53.062;6.078;2023-02-28T08:44:48;15.30;;;11.35;;
53971;SDS011;40530;53.062;6.078;2023-02-28T08:47:14;19.15;;;12.13;;
53971;SDS011;40530;53.062;6.078;2023-02-28T08:49:40;16.02;;;11.48;;
53971;SDS011;40530;53.062;6.078;2023-02-28T08:52:06;19.05;;;12.15;;
53971;SDS011;40530;53.062;6.078;2023-02-28T08:54:32;17.73;;;11.82;;
53971;SDS011;40530;53.062;6.078;2023-02-28T08:56:59;15.02;;;11.50;;
53971;SDS011;40530;53.062;6.078;2023-02-28T08:59:25;13.48;;;10.65;;
53971;SDS011;40530;53.062;6.078;2023-02-28T09:01:51;14.88;;;11.15;;
53971;SDS011;40530;53.062;6.078;2023-02-28T09:04:17;17.05;;;12.20;;
53971;SDS011;40530;53.062;6.078;2023-02-28T09:06:43;15.30;;;10.77;;
53971;SDS011;40530;53.062;6.078;2023-02-28T09:09:09;14.73;;;11.00;;
53971;SDS011;40530;53.062;6.078;2023-02-28T09:11:36;14.82;;;10.27;;
53971;SDS011;40530;53.062;6.078;2023-02-28T09:14:02;14.25;;;11.00;;
53971;SDS011;40530;53.062;6.078;2023-02-28T09:16:29;12.35;;;10.18;;
53971;SDS011;40530;53.062;6.078;2023-02-28T09:18:55;16.55;;;11.30;;
53971;SDS011;40530;53.062;6.078;2023-02-28T09:21:22;15.45;;;10.43;;
53971;SDS011;40530;53.062;6.078;2023-02-28T09:23:49;30.65;;;20.60;;
53971;SDS011;40530;53.062;6.078;2023-02-28T09:26:19;12.93;;;10.50;;
53971;SDS011;40530;53.062;6.078;2023-02-28T09:28:45;13.27;;;10.20;;
53971;SDS011;40530;53.062;6.078;2023-02-28T09:31:13;13.45;;;11.10;;
53971;SDS011;40530;53.062;6.078;2023-02-28T09:33:40;15.73;;;11.32;;
53971;SDS011;40530;53.062;6.078;2023-02-28T09:36:06;13.02;;;10.23;;
53971;SDS011;40530;53.062;6.078;2023-02-28T09:38:32;13.68;;;10.38;;
53971;SDS011;40530;53.062;6.078;2023-02-28T09:40:59;16.58;;;9.48;;
53971;SDS011;40530;53.062;6.078;2023-02-28T09:43:26;10.00;;;8.27;;
53971;SDS011;40530;53.062;6.078;2023-02-28T09:45:56;9.20;;;8.15;;
53971;SDS011;40530;53.062;6.078;2023-02-28T09:48:27;10.68;;;8.93;;
53971;SDS011;40530;53.062;6.078;2023-02-28T09:50:59;13.40;;;8.57;;
53971;SDS011;40530;53.062;6.078;2023-02-28T09:53:30;12.55;;;8.73;;
53971;SDS011;40530;53.062;6.078;2023-02-28T09:55:59;12.63;;;9.00;;
53971;SDS011;40530;53.062;6.078;2023-02-28T09:58:32;14.23;;;8.25;;
53971;SDS011;40530;53.062;6.078;2023-02-28T10:01:12;9.88;;;7.65;;
53971;SDS011;40530;53.062;6.078;2023-02-28T10:03:54;10.23;;;7.90;;
53971;SDS011;40530;53.062;6.078;2023-02-28T10:06:23;9.27;;;8.13;;
53971;SDS011;40530;53.062;6.078;2023-02-28T10:11:50;19.63;;;13.45;;
53971;SDS011;40530;53.062;6.078;2023-02-28T10:14:24;10.52;;;8.40;;
53971;SDS011;40530;53.062;6.078;2023-02-28T10:17:35;10.05;;;6.93;;
53971;SDS011;40530;53.062;6.078;2023-02-28T10:24:33;9.45;;;6.35;;
53971;SDS011;40530;53.062;6.078;2023-02-28T10:27:14;10.77;;;6.22;;
53971;SDS011;40530;53.062;6.078;2023-02-28T10:29:41;8.60;;;5.68;;
53971;SDS011;40530;53.062;6.078;2023-02-28T10:32:08;7.28;;;4.78;;
53971;SDS011;40530;53.062;6.078;2023-02-28T10:34:36;8.57;;;5.30;;
53971;SDS011;40530;53.062;6.078;2023-02-28T10:37:02;7.13;;;4.03;;
53971;SDS011;40530;53.062;6.078;2023-02-28T10:39:42;6.32;;;4.28;;
53971;SDS011;40530;53.062;6.078;2023-02-28T10:42:21;5.68;;;3.45;;
53971;SDS011;40530;53.062;6.078;2023-02-28T10:44:52;6.20;;;3.88;;
53971;SDS011;40530;53.062;6.078;2023-02-28T10:47:30;6.47;;;3.72;;
53971;SDS011;40530;53.062;6.078;2023-02-28T10:49:56;4.60;;;3.28;;
53971;SDS011;40530;53.062;6.078;2023-02-28T10:52:35;6.63;;;3.03;;
53971;SDS011;40530;53.062;6.078;2023-02-28T10:55:22;3.95;;;2.95;;
53971;SDS011;40530;53.062;6.078;2023-02-28T10:57:50;4.47;;;3.22;;
53971;SDS011;40530;53.062;6.078;2023-02-28T11:00:20;6.85;;;3.92;;
53971;SDS011;40530;53.062;6.078;2023-02-28T11:02:47;3.42;;;2.67;;
53971;SDS011;40530;53.062;6.078;2023-02-28T11:05:33;5.38;;;2.80;;
53971;SDS011;40530;53.062;6.078;2023-02-28T11:08:04;3.63;;;2.60;;
53971;SDS011;40530;53.062;6.078;2023-02-28T11:12:59;2.63;;;2.30;;
53971;SDS011;40530;53.062;6.078;2023-02-28T11:15:29;3.97;;;3.20;;
53971;SDS011;40530;53.062;6.078;2023-02-28T11:20:42;2.97;;;2.78;;
53971;SDS011;40530;53.062;6.078;2023-02-28T11:23:13;4.82;;;3.30;;
53971;SDS011;40530;53.062;6.078;2023-02-28T11:25:40;5.65;;;3.30;;
53971;SDS011;40530;53.062;6.078;2023-02-28T11:36:12;4.97;;;3.05;;
53971;SDS011;40530;53.062;6.078;2023-02-28T11:38:38;2.25;;;2.00;;
53971;SDS011;40530;53.062;6.078;2023-02-28T11:43:55;6.13;;;2.00;;
53971;SDS011;40530;53.062;6.078;2023-02-28T12:05:02;7.85;;;3.92;;
53971;SDS011;40530;53.062;6.078;2023-02-28T12:10:00;4.90;;;3.00;;
53971;SDS011;40530;53.062;6.078;2023-02-28T12:22:50;3.83;;;2.78;;
53971;SDS011;40530;53.062;6.078;2023-02-28T12:28:07;4.80;;;2.70;;
53971;SDS011;40530;53.062;6.078;2023-02-28T12:30:35;2.80;;;2.38;;
53971;SDS011;40530;53.062;6.078;2023-02-28T12:33:04;4.35;;;2.33;;
53971;SDS011;40530;53.062;6.078;2023-02-28T12:38:36;4.30;;;2.20;;
53971;SDS011;40530;53.062;6.078;2023-02-28T12:41:04;3.40;;;2.58;;
53971;SDS011;40530;53.062;6.078;2023-02-28T12:43:34;3.75;;;2.47;;
53971;SDS011;40530;53.062;6.078;2023-02-28T12:46:09;5.20;;;2.92;;
53971;SDS011;40530;53.062;6.078;2023-02-28T12:48:43;4.20;;;2.60;;
53971;SDS011;40530;53.062;6.078;2023-02-28T12:51:11;5.13;;;2.70;;
53971;SDS011;40530;53.062;6.078;2023-02-28T12:56:18;3.70;;;2.47;;
53971;SDS011;40530;53.062;6.078;2023-02-28T13:01:35;4.28;;;2.78;;
53971;SDS011;40530;53.062;6.078;2023-02-28T13:09:27;2.47;;;2.28;;
53971;SDS011;40530;53.062;6.078;2023-02-28T13:11:54;2.70;;;2.30;;
53971;SDS011;40530;53.062;6.078;2023-02-28T13:19:23;4.65;;;2.90;;
53971;SDS011;40530;53.062;6.078;2023-02-28T13:21:50;3.15;;;2.70;;
53971;SDS011;40530;53.062;6.078;2023-02-28T13:27:32;4.18;;;2.78;;
53971;SDS011;40530;53.062;6.078;2023-02-28T13:29:58;3.90;;;2.60;;
53971;SDS011;40530;53.062;6.078;2023-02-28T13:47:29;4.60;;;3.60;;
53971;SDS011;40530;53.062;6.078;2023-02-28T13:55:31;6.95;;;2.63;;
53971;SDS011;40530;53.062;6.078;2023-02-28T14:08:37;11.00;;;5.90;;
53971;SDS011;40530;53.062;6.078;2023-02-28T14:11:08;8.65;;;3.58;;
53971;SDS011;40530;53.062;6.078;2023-02-28T14:13:39;3.77;;;2.33;;
53971;SDS011;40530;53.062;6.078;2023-02-28T14:16:54;5.95;;;2.60;;
53971;SDS011;40530;53.062;6.078;2023-02-28T14:18:57;3.35;;;2.45;;
53971;SDS011;40530;53.062;6.078;2023-02-28T14:21:25;3.75;;;2.63;;
53971;SDS011;40530;53.062;6.078;2023-02-28T14:26:32;5.75;;;2.35;;
53971;SDS011;40530;53.062;6.078;2023-02-28T14:31:48;8.48;;;4.35;;
53971;SDS011;40530;53.062;6.078;2023-02-28T14:36:47;4.38;;;2.65;;
53971;SDS011;40530;53.062;6.078;2023-02-28T14:39:15;5.10;;;3.00;;
53971;SDS011;40530;53.062;6.078;2023-02-28T14:41:42;4.45;;;2.42;;
53971;SDS011;40530;53.062;6.078;2023-02-28T14:46:41;4.65;;;2.80;;
53971;SDS011;40530;53.062;6.078;2023-02-28T14:52:06;4.78;;;2.58;;
53971;SDS011;40530;53.062;6.078;2023-02-28T14:54:34;5.30;;;2.55;;
53971;SDS011;40530;53.062;6.078;2023-02-28T14:57:00;5.35;;;2.65;;
53971;SDS011;40530;53.062;6.078;2023-02-28T14:59:30;7.43;;;2.95;;
53971;SDS011;40530;53.062;6.078;2023-02-28T15:04:41;3.15;;;2.38;;
53971;SDS011;40530;53.062;6.078;2023-02-28T15:07:12;3.72;;;2.70;;
53971;SDS011;40530;53.062;6.078;2023-02-28T15:09:38;4.57;;;3.03;;
53971;SDS011;40530;53.062;6.078;2023-02-28T15:12:05;5.25;;;2.50;;
53971;SDS011;40530;53.062;6.078;2023-02-28T15:14:31;6.25;;;2.55;;
53971;SDS011;40530;53.062;6.078;2023-02-28T15:16:59;4.57;;;2.53;;
53971;SDS011;40530;53.062;6.078;2023-02-28T15:19:27;5.90;;;3.03;;
53971;SDS011;40530;53.062;6.078;2023-02-28T15:21:57;4.07;;;2.60;;
53971;SDS011;40530;53.062;6.078;2023-02-28T15:24:30;6.40;;;2.67;;
53971;SDS011;40530;53.062;6.078;2023-02-28T15:26:58;4.13;;;2.67;;
53971;SDS011;40530;53.062;6.078;2023-02-28T15:29:26;4.78;;;3.13;;
53971;SDS011;40530;53.062;6.078;2023-02-28T15:31:57;5.13;;;2.80;;
53971;SDS011;40530;53.062;6.078;2023-02-28T15:36:51;4.35;;;3.15;;
53971;SDS011;40530;53.062;6.078;2023-02-28T15:39:22;5.15;;;3.10;;
53971;SDS011;40530;53.062;6.078;2023-02-28T15:41:48;3.38;;;2.80;;
53971;SDS011;40530;53.062;6.078;2023-02-28T15:44:24;4.80;;;2.90;;
53971;SDS011;40530;53.062;6.078;2023-02-28T15:47:01;4.65;;;2.90;;
53971;SDS011;40530;53.062;6.078;2023-02-28T15:49:28;4.43;;;2.78;;
53971;SDS011;40530;53.062;6.078;2023-02-28T15:51:56;5.50;;;3.25;;
53971;SDS011;40530;53.062;6.078;2023-02-28T15:54:31;5.45;;;2.65;;
53971;SDS011;40530;53.062;6.078;2023-02-28T15:57:00;4.35;;;2.90;;
53971;SDS011;40530;53.062;6.078;2023-02-28T15:59:28;7.25;;;3.35;;
53971;SDS011;40530;53.062;6.078;2023-02-28T16:07:21;4.93;;;3.00;;
53971;SDS011;40530;53.062;6.078;2023-02-28T16:09:47;4.80;;;2.88;;
53971;SDS011;40530;53.062;6.078;2023-02-28T16:12:13;6.20;;;2.97;;
53971;SDS011;40530;53.062;6.078;2023-02-28T16:14:39;6.25;;;3.35;;
53971;SDS011;40530;53.062;6.078;2023-02-28T16:17:39;7.28;;;2.97;;
53971;SDS011;40530;53.062;6.078;2023-02-28T16:19:58;7.82;;;4.05;;
53971;SDS011;40530;53.062;6.078;2023-02-28T16:22:24;6.50;;;3.08;;
53971;SDS011;40530;53.062;6.078;2023-02-28T16:24:50;3.70;;;2.97;;
53971;SDS011;40530;53.062;6.078;2023-02-28T16:27:17;6.60;;;3.50;;
53971;SDS011;40530;53.062;6.078;2023-02-28T16:29:44;3.88;;;2.80;;
53971;SDS011;40530;53.062;6.078;2023-02-28T16:32:11;3.80;;;2.80;;
53971;SDS011;40530;53.062;6.078;2023-02-28T16:34:38;5.15;;;3.80;;
53971;SDS011;40530;53.062;6.078;2023-02-28T16:37:05;7.15;;;4.10;;
53971;SDS011;40530;53.062;6.078;2023-02-28T16:39:35;7.13;;;3.10;;
53971;SDS011;40530;53.062;6.078;2023-02-28T16:42:02;8.07;;;4.47;;
53971;SDS011;40530;53.062;6.078;2023-02-28T16:44:33;6.03;;;3.47;;
53971;SDS011;40530;53.062;6.078;2023-02-28T16:46:59;8.65;;;3.38;;
53971;SDS011;40530;53.062;6.078;2023-02-28T16:49:26;6.15;;;3.28;;
53971;SDS011;40530;53.062;6.078;2023-02-28T16:51:52;5.82;;;3.25;;
53971;SDS011;40530;53.062;6.078;2023-02-28T16:54:18;5.30;;;3.95;;
53971;SDS011;40530;53.062;6.078;2023-02-28T16:56:45;5.63;;;4.28;;
53971;SDS011;40530;53.062;6.078;2023-02-28T16:59:12;7.05;;;3.83;;
53971;SDS011;40530;53.062;6.078;2023-02-28T17:01:38;6.60;;;3.65;;
53971;SDS011;40530;53.062;6.078;2023-02-28T17:04:05;6.55;;;4.07;;
53971;SDS011;40530;53.062;6.078;2023-02-28T17:06:31;8.30;;;4.47;;
53971;SDS011;40530;53.062;6.078;2023-02-28T17:08:57;8.60;;;4.30;;
53971;SDS011;40530;53.062;6.078;2023-02-28T17:11:24;9.73;;;4.80;;
53971;SDS011;40530;53.062;6.078;2023-02-28T17:13:51;7.80;;;4.88;;
53971;SDS011;40530;53.062;6.078;2023-02-28T17:16:32;13.93;;;8.20;;
53971;SDS011;40530;53.062;6.078;2023-02-28T17:18:59;16.40;;;11.25;;
53971;SDS011;40530;53.062;6.078;2023-02-28T17:21:26;12.02;;;6.93;;
53971;SDS011;40530;53.062;6.078;2023-02-28T17:23:52;8.63;;;5.80;;
53971;SDS011;40530;53.062;6.078;2023-02-28T17:26:19;7.72;;;5.22;;
53971;SDS011;40530;53.062;6.078;2023-02-28T17:28:46;10.85;;;6.10;;
53971;SDS011;40530;53.062;6.078;2023-02-28T17:31:12;10.70;;;6.30;;
53971;SDS011;40530;53.062;6.078;2023-02-28T17:33:38;8.77;;;5.50;;
53971;SDS011;40530;53.062;6.078;2023-02-28T17:36:04;7.88;;;4.93;;
53971;SDS011;40530;53.062;6.078;2023-02-28T17:38:31;8.65;;;4.53;;
53971;SDS011;40530;53.062;6.078;2023-02-28T17:40:57;9.25;;;4.90;;